createdAt,value
2018-04-01T00:00:58.833Z,93523.20
2018-04-01T00:03:27.310Z,93522.99
2018-04-01T00:05:55.812Z,93526.60
2018-04-01T00:08:23.888Z,93523.04
2018-04-01T00:10:51.702Z,93525.55
2018-04-01T00:13:19.508Z,93521.95
2018-04-01T00:15:47.556Z,93519.88
2018-04-01T00:18:15.425Z,93525.98
2018-04-01T00:20:43.385Z,93521.77
2018-04-01T00:23:12.440Z,93526.53
2018-04-01T00:25:40.814Z,93522.41
2018-04-01T00:28:08.950Z,93525.53
2018-04-01T00:30:36.934Z,93524.34
2018-04-01T00:33:05.343Z,93527.61
2018-04-01T00:35:33.158Z,93535.25
2018-04-01T00:38:01.114Z,93540.64
2018-04-01T00:40:28.859Z,93537.27
2018-04-01T00:42:56.613Z,93546.63
2018-04-01T00:45:25.372Z,93548.52
2018-04-01T00:47:52.979Z,93539.99
2018-04-01T00:50:20.616Z,93540.02
2018-04-01T00:52:48.284Z,93536.01
2018-04-01T00:55:15.906Z,93533.55
2018-04-01T00:57:43.564Z,93528.77
2018-04-01T01:00:11.196Z,93532.98
2018-04-01T01:02:43.452Z,93532.25
2018-04-01T01:05:11.376Z,93529.27
2018-04-01T01:07:39.019Z,93526.62
2018-04-01T01:10:23.667Z,93521.89
2018-04-01T01:12:51.997Z,93522.86
2018-04-01T01:15:28.989Z,93523.70
2018-04-01T01:17:56.869Z,93522.31
2018-04-01T01:20:24.863Z,93523.51
2018-04-01T01:22:58.385Z,93521.51
2018-04-01T01:25:30.657Z,93519.52
2018-04-01T01:27:58.230Z,93514.52
2018-04-01T01:30:34.145Z,93512.23
2018-04-01T01:33:02.544Z,93518.67
2018-04-01T01:35:30.209Z,93510.33
2018-04-01T01:37:57.853Z,93514.92
2018-04-01T01:40:25.670Z,93515.08
2018-04-01T01:42:53.594Z,93520.55
2018-04-01T01:45:21.230Z,93524.31
2018-04-01T01:47:49.137Z,93520.36
2018-04-01T01:50:16.979Z,93514.01
2018-04-01T01:52:44.828Z,93518.46
2018-04-01T01:55:12.382Z,93518.02
2018-04-01T01:57:40.196Z,93518.95
2018-04-01T02:00:07.761Z,93530.06
2018-04-01T02:02:35.610Z,93514.70
2018-04-01T02:05:03.283Z,93513.44
2018-04-01T02:07:31.170Z,93514.86
2018-04-01T02:09:58.943Z,93521.70
2018-04-01T02:12:26.578Z,93517.59
2018-04-01T02:14:54.551Z,93514.58
2018-04-01T02:17:22.302Z,93515.45
2018-04-01T02:19:50.038Z,93507.22
2018-04-01T02:22:17.962Z,93509.03
2018-04-01T02:24:45.910Z,93501.48
2018-04-01T02:27:13.582Z,93493.80
2018-04-01T02:29:41.230Z,93499.02
2018-04-01T02:32:08.943Z,93491.72
2018-04-01T02:34:36.700Z,93492.36
2018-04-01T02:37:04.568Z,93498.30
2018-04-01T02:39:32.379Z,93499.90
2018-04-01T02:42:00.140Z,93505.22
2018-04-01T02:44:27.759Z,93498.47
2018-04-01T02:46:55.617Z,93496.30
2018-04-01T02:49:23.404Z,93498.85
2018-04-01T02:51:51.247Z,93502.31
2018-04-01T02:54:19.000Z,93497.74
2018-04-01T02:56:47.183Z,93505.56
2018-04-01T02:59:15.584Z,93507.80
2018-04-01T03:01:43.571Z,93503.30
2018-04-01T03:04:11.786Z,93509.05
2018-04-01T03:06:40.857Z,93512.36
2018-04-01T03:09:08.689Z,93508.02
2018-04-01T03:11:36.281Z,93511.16
2018-04-01T03:14:04.477Z,93517.81
2018-04-01T03:16:32.558Z,93513.77
2018-04-01T03:19:00.558Z,93523.25
2018-04-01T03:21:28.292Z,93520.20
2018-04-01T03:23:56.160Z,93521.97
2018-04-01T03:26:24.045Z,93529.52
2018-04-01T03:28:51.994Z,93531.23
2018-04-01T03:31:19.600Z,93529.75
2018-04-01T03:33:47.845Z,93536.69
2018-04-01T03:36:15.897Z,93530.34
2018-04-01T03:38:43.773Z,93540.08
2018-04-01T03:41:11.729Z,93534.51
2018-04-01T03:43:40.134Z,93538.78
2018-04-01T03:46:08.175Z,93529.51
2018-04-01T03:48:35.943Z,93539.61
2018-04-01T03:51:03.609Z,93536.23
2018-04-01T03:53:31.290Z,93533.78
2018-04-01T03:55:59.291Z,93534.28
2018-04-01T03:58:27.224Z,93533.88
2018-04-01T04:00:54.853Z,93532.57
2018-04-01T04:03:22.546Z,93535.32
2018-04-01T04:05:50.514Z,93543.75
2018-04-01T04:08:18.574Z,93542.27
2018-04-01T04:10:46.231Z,93548.92
2018-04-01T04:13:13.868Z,93542.69
2018-04-01T04:15:41.524Z,93544.51
2018-04-01T04:18:09.669Z,93547.05
2018-04-01T04:20:37.489Z,93555.19
2018-04-01T04:23:05.141Z,93545.41
2018-04-01T04:25:32.852Z,93545.37
2018-04-01T04:28:00.593Z,93550.16
2018-04-01T04:30:28.139Z,93554.84
2018-04-01T04:32:55.840Z,93545.27
2018-04-01T04:35:23.802Z,93550.99
2018-04-01T04:37:51.527Z,93561.49
2018-04-01T04:40:19.377Z,93564.53
2018-04-01T04:42:47.074Z,93567.52
2018-04-01T04:45:14.768Z,93566.34
2018-04-01T04:47:42.561Z,93570.84
2018-04-01T04:50:11.287Z,93573.49
2018-04-01T04:52:39.499Z,93570.86
2018-04-01T04:55:08.250Z,93563.97
2018-04-01T04:57:35.901Z,93575.44
2018-04-01T05:00:03.717Z,93564.63
2018-04-01T05:02:31.645Z,93559.26
2018-04-01T05:04:59.525Z,93565.23
2018-04-01T05:07:27.466Z,93567.95
2018-04-01T05:09:55.562Z,93563.31
2018-04-01T05:12:23.540Z,93568.31
2018-04-01T05:14:51.291Z,93561.55
2018-04-01T05:17:19.060Z,93563.20
2018-04-01T05:19:46.724Z,93573.30
2018-04-01T05:22:14.584Z,93570.83
2018-04-01T05:24:42.547Z,93576.16
2018-04-01T05:27:10.772Z,93580.20
2018-04-01T05:29:39.913Z,93578.20
2018-04-01T05:32:08.161Z,93579.23
2018-04-01T05:34:37.058Z,93578.24
2018-04-01T05:37:05.075Z,93587.69
2018-04-01T05:39:32.817Z,93587.62
2018-04-01T05:42:00.418Z,93592.62
2018-04-01T05:44:28.151Z,93592.10
2018-04-01T05:46:55.971Z,93601.67
2018-04-01T05:49:23.896Z,93600.68
2018-04-01T05:51:51.633Z,93600.52
2018-04-01T05:54:19.427Z,93609.11
2018-04-01T05:56:47.156Z,93611.27
2018-04-01T05:59:15.142Z,93616.81
2018-04-01T06:01:42.745Z,93613.37
2018-04-01T06:04:10.448Z,93621.00
2018-04-01T06:06:38.137Z,93623.95
2018-04-01T06:09:06.421Z,93633.41
2018-04-01T06:11:34.269Z,93638.47
2018-04-01T06:14:02.055Z,93643.92
2018-04-01T06:16:29.917Z,93642.20
2018-04-01T06:18:57.870Z,93637.94
2018-04-01T06:21:25.630Z,93643.12
2018-04-01T06:23:53.696Z,93645.90
2018-04-01T06:26:21.691Z,93654.11
2018-04-01T06:28:49.483Z,93651.98
2018-04-01T06:31:17.221Z,93656.67
2018-04-01T06:33:45.110Z,93659.56
2018-04-01T06:36:13.056Z,93658.53
2018-04-01T06:38:40.799Z,93661.16
2018-04-01T06:41:08.707Z,93663.78
2018-04-01T06:43:36.650Z,93666.66
2018-04-01T06:46:04.316Z,93665.63
2018-04-01T06:48:32.247Z,93664.70
2018-04-01T06:51:00.106Z,93670.77
2018-04-01T06:53:27.927Z,93665.23
2018-04-01T06:55:55.676Z,93670.61
2018-04-01T06:58:23.331Z,93675.55
2018-04-01T07:01:06.141Z,93676.24
2018-04-01T07:03:34.128Z,93679.39
2018-04-01T07:06:06.732Z,93677.55
2018-04-01T07:08:34.786Z,93685.43
2018-04-01T07:11:02.549Z,93686.98
2018-04-01T07:13:30.692Z,93698.27
2018-04-01T07:15:58.705Z,93701.73
2018-04-01T07:18:26.410Z,93711.69
2018-04-01T07:20:54.017Z,93712.03
2018-04-01T07:23:21.709Z,93711.72
2018-04-01T07:25:49.567Z,93712.41
2018-04-01T07:28:17.637Z,93720.20
2018-04-01T07:30:45.997Z,93719.00
2018-04-01T07:33:13.724Z,93726.88
2018-04-01T07:35:41.785Z,93733.66
2018-04-01T07:38:09.914Z,93729.75
2018-04-01T07:40:37.815Z,93735.14
2018-04-01T07:43:05.648Z,93739.33
2018-04-01T07:45:33.728Z,93737.38
2018-04-01T07:48:01.479Z,93742.31
2018-04-01T07:50:29.221Z,93744.03
2018-04-01T07:52:58.432Z,93747.41
2018-04-01T07:55:26.803Z,93747.19
2018-04-01T07:57:54.704Z,93754.39
2018-04-01T08:00:22.448Z,93748.48
2018-04-01T08:02:50.686Z,93752.02
2018-04-01T08:05:20.024Z,93753.72
2018-04-01T08:07:48.165Z,93758.02
2018-04-01T08:10:16.026Z,93749.43
2018-04-01T08:12:43.765Z,93753.39
2018-04-01T08:15:12.647Z,93755.84
2018-04-01T08:17:40.695Z,93758.80
2018-04-01T08:20:08.722Z,93766.87
2018-04-01T08:22:37.244Z,93771.50
2018-04-01T08:25:05.300Z,93771.96
2018-04-01T08:27:33.160Z,93773.88
2018-04-01T08:30:01.284Z,93780.31
2018-04-01T08:32:29.838Z,93782.55
2018-04-01T08:34:57.622Z,93782.70
2018-04-01T08:37:25.820Z,93787.91
2018-04-01T08:39:53.752Z,93786.16
2018-04-01T08:42:21.604Z,93784.28
2018-04-01T08:44:49.420Z,93789.16
2018-04-01T08:47:17.534Z,93793.04
2018-04-01T08:49:45.517Z,93795.66
2018-04-01T08:52:13.587Z,93798.52
2018-04-01T08:54:41.619Z,93805.26
2018-04-01T08:57:09.673Z,93810.53
2018-04-01T08:59:38.123Z,93811.22
2018-04-01T09:02:06.290Z,93814.38
2018-04-01T09:04:34.887Z,93818.63
2018-04-01T09:07:02.978Z,93820.02
2018-04-01T09:09:31.265Z,93823.06
2018-04-01T09:11:59.773Z,93828.37
2018-04-01T09:14:28.069Z,93822.36
2018-04-01T09:16:56.484Z,93828.50
2018-04-01T09:19:24.647Z,93834.55
2018-04-01T09:21:53.061Z,93839.66
2018-04-01T09:24:22.717Z,93838.06
2018-04-01T09:26:50.841Z,93832.93
2018-04-01T09:29:19.129Z,93835.31
2018-04-01T09:31:47.284Z,93834.06
2018-04-01T09:34:15.653Z,93837.17
2018-04-01T09:36:45.745Z,93841.17
2018-04-01T09:39:15.114Z,93842.44
2018-04-01T09:41:43.835Z,93841.58
2018-04-01T09:44:12.939Z,93839.33
2018-04-01T09:46:41.120Z,93853.61
2018-04-01T09:49:10.829Z,93852.97
2018-04-01T09:51:39.603Z,93853.34
2018-04-01T09:54:09.724Z,93860.05
2018-04-01T09:56:37.759Z,93857.37
2018-04-01T09:59:08.002Z,93867.40
2018-04-01T10:01:36.502Z,93873.45
2018-04-01T10:04:05.479Z,93875.51
2018-04-01T10:06:34.566Z,93878.14
2018-04-01T10:09:04.824Z,93873.66
2018-04-01T10:11:33.694Z,93881.97
2018-04-01T10:14:02.657Z,93887.75
2018-04-01T10:16:32.239Z,93886.38
2018-04-01T10:19:01.096Z,93886.72
2018-04-01T10:21:30.366Z,93891.33
2018-04-01T10:23:59.283Z,93893.13
2018-04-01T10:26:28.126Z,93893.21
2018-04-01T10:28:57.560Z,93902.33
2018-04-01T10:31:26.849Z,93901.98
2018-04-01T10:33:56.010Z,93905.99
2018-04-01T10:36:25.589Z,93903.75
2018-04-01T10:38:54.664Z,93905.19
2018-04-01T10:41:37.970Z,93910.83
2018-04-01T10:44:07.088Z,93918.75
2018-04-01T10:46:36.361Z,93914.16
2018-04-01T10:49:05.119Z,93919.47
2018-04-01T10:51:34.488Z,93927.91
2018-04-01T10:54:03.338Z,93927.09
2018-04-01T10:56:31.964Z,93933.91
2018-04-01T10:59:00.427Z,93938.77
2018-04-01T11:01:28.905Z,93943.34
2018-04-01T11:03:57.168Z,93948.63
2018-04-01T11:06:25.566Z,93943.81
2018-04-01T11:08:53.552Z,93946.55
2018-04-01T11:11:22.240Z,93950.87
2018-04-01T11:13:51.109Z,93956.16
2018-04-01T11:16:18.854Z,93961.62
2018-04-01T11:18:46.628Z,93962.98
2018-04-01T11:21:14.461Z,93962.64
2018-04-01T11:23:42.321Z,93960.02
2018-04-01T11:26:10.532Z,93961.53
2018-04-01T11:28:38.566Z,93969.41
2018-04-01T11:31:08.453Z,93974.34
2018-04-01T11:33:37.138Z,93972.04
2018-04-01T11:36:05.626Z,93975.84
2018-04-01T11:38:37.011Z,93974.23
2018-04-01T11:41:06.438Z,93985.66
2018-04-01T11:43:35.178Z,93983.00
2018-04-01T11:46:03.485Z,93979.91
2018-04-01T11:48:31.813Z,93985.94
2018-04-01T11:51:00.935Z,93986.05
2018-04-01T11:53:33.694Z,93988.21
2018-04-01T11:56:02.572Z,93994.62
2018-04-01T11:58:31.849Z,93999.73
2018-04-01T12:01:00.120Z,93994.08
2018-04-01T12:03:29.873Z,93993.77
2018-04-01T12:05:58.784Z,93995.77
2018-04-01T12:08:26.550Z,94002.84
2018-04-01T12:10:54.279Z,94000.16
2018-04-01T12:13:22.835Z,94003.09
2018-04-01T12:15:51.168Z,94000.33
2018-04-01T12:18:20.338Z,93993.33
2018-04-01T12:20:49.071Z,93997.14
2018-04-01T12:23:16.876Z,94003.37
2018-04-01T12:25:44.761Z,94002.95
2018-04-01T12:28:12.566Z,94001.41
2018-04-01T12:30:41.463Z,94004.91
2018-04-01T12:33:10.279Z,94010.03
2018-04-01T12:35:39.541Z,94020.86
2018-04-01T12:38:08.353Z,94014.28
2018-04-01T12:40:37.438Z,94022.59
2018-04-01T12:43:05.630Z,94023.28
2018-04-01T12:45:34.987Z,94024.93
2018-04-01T12:48:04.665Z,94027.81
2018-04-01T12:50:33.197Z,94032.22
2018-04-01T12:53:01.580Z,94038.27
2018-04-01T12:55:29.751Z,94036.17
2018-04-01T12:57:57.901Z,94036.98
2018-04-01T13:00:26.321Z,94040.16
2018-04-01T13:02:54.321Z,94043.81
2018-04-01T13:05:24.354Z,94041.88
2018-04-01T13:07:53.307Z,94045.89
2018-04-01T13:10:21.400Z,94048.39
2018-04-01T13:12:49.684Z,94051.31
2018-04-01T13:15:17.852Z,94053.44
2018-04-01T13:17:46.268Z,94066.70
2018-04-01T13:20:14.360Z,94061.52
2018-04-01T13:22:43.012Z,94067.04
2018-04-01T13:25:10.938Z,94068.88
2018-04-01T13:27:39.646Z,94063.59
2018-04-01T13:30:08.820Z,94071.81
2018-04-01T13:32:38.487Z,94078.37
2018-04-01T13:35:07.468Z,94083.96
2018-04-01T13:37:35.851Z,94086.39
2018-04-01T13:40:03.817Z,94082.80
2018-04-01T13:42:37.503Z,94087.47
2018-04-01T13:45:05.975Z,94095.83
2018-04-01T13:47:34.391Z,94098.55
2018-04-01T13:50:02.850Z,94102.69
2018-04-01T13:52:31.211Z,94097.61
2018-04-01T13:54:59.454Z,94105.81
2018-04-01T13:57:28.081Z,94105.73
2018-04-01T13:59:56.523Z,94107.84
2018-04-01T14:02:25.379Z,94107.75
2018-04-01T14:04:53.772Z,94105.71
2018-04-01T14:07:22.240Z,94121.16
2018-04-01T14:09:50.303Z,94117.81
2018-04-01T14:12:18.312Z,94123.50
2018-04-01T14:14:46.864Z,94120.27
2018-04-01T14:17:15.031Z,94133.42
2018-04-01T14:19:43.294Z,94129.34
2018-04-01T14:22:11.374Z,94138.52
2018-04-01T14:24:42.187Z,94145.13
2018-04-01T14:27:10.307Z,94145.86
2018-04-01T14:29:39.660Z,94151.31
2018-04-01T14:32:07.808Z,94157.06
2018-04-01T14:34:35.842Z,94162.27
2018-04-01T14:37:05.545Z,94161.89
2018-04-01T14:39:34.464Z,94153.61
2018-04-01T14:42:02.167Z,94159.95
2018-04-01T14:44:30.321Z,94160.94
2018-04-01T14:46:59.408Z,94157.95
2018-04-01T14:49:27.440Z,94166.67
2018-04-01T14:51:55.297Z,94169.63
2018-04-01T14:54:23.462Z,94179.63
2018-04-01T14:56:51.345Z,94178.11
2018-04-01T14:59:19.580Z,94187.30
2018-04-01T15:01:48.302Z,94186.01
2018-04-01T15:07:06.378Z,94186.31
2018-04-01T15:12:12.126Z,94201.56
2018-04-01T15:14:40.411Z,94202.09
2018-04-01T15:17:09.476Z,94198.32
2018-04-01T15:19:38.038Z,94205.83
2018-04-01T15:22:06.780Z,94206.66
2018-04-01T15:24:36.075Z,94207.75
2018-04-01T15:27:05.973Z,94206.22
2018-04-01T15:29:35.357Z,94208.16
2018-04-01T15:32:07.266Z,94206.80
2018-04-01T15:34:37.610Z,94209.41
2018-04-01T15:37:08.156Z,94201.05
2018-04-01T15:39:37.460Z,94209.69
2018-04-01T15:42:11.002Z,94209.31
2018-04-01T15:44:41.856Z,94218.78
2018-04-01T15:47:14.532Z,94214.55
2018-04-01T15:49:44.875Z,94216.75
2018-04-01T15:52:14.710Z,94221.75
2018-04-01T15:54:42.744Z,94224.94
2018-04-01T15:57:10.765Z,94224.88
2018-04-01T15:59:39.748Z,94221.59
2018-04-01T16:02:09.945Z,94224.42
2018-04-01T16:04:40.522Z,94222.94
2018-04-01T16:07:08.741Z,94213.59
2018-04-01T16:09:38.814Z,94221.98
2018-04-01T16:12:06.906Z,94224.00
2018-04-01T16:14:36.284Z,94227.98
2018-04-01T16:17:04.789Z,94222.75
2018-04-01T16:19:34.483Z,94231.13
2018-04-01T16:22:02.331Z,94237.89
2018-04-01T16:24:39.934Z,94237.52
2018-04-01T16:27:08.429Z,94235.70
2018-04-01T16:29:36.351Z,94230.89
2018-04-01T16:32:09.084Z,94237.52
2018-04-01T16:34:37.841Z,94234.04
2018-04-01T16:37:07.618Z,94243.28
2018-04-01T16:39:36.024Z,94245.75
2018-04-01T16:42:03.679Z,94243.31
2018-04-01T16:44:31.335Z,94241.75
2018-04-01T16:46:58.905Z,94239.02
2018-04-01T16:49:26.503Z,94245.63
2018-04-01T16:51:54.144Z,94254.30
2018-04-01T16:54:21.718Z,94251.59
2018-04-01T16:56:49.312Z,94248.48
2018-04-01T16:59:16.935Z,94260.24
2018-04-01T17:01:44.527Z,94254.94
2018-04-01T17:04:12.273Z,94260.40
2018-04-01T17:06:39.924Z,94256.88
2018-04-01T17:09:07.520Z,94254.93
2018-04-01T17:11:35.128Z,94258.06
2018-04-01T17:14:02.726Z,94258.83
2018-04-01T17:16:30.377Z,94265.73
2018-04-01T17:18:57.966Z,94263.36
2018-04-01T17:21:25.571Z,94268.29
2018-04-01T17:23:53.162Z,94276.93
2018-04-01T17:26:20.723Z,94283.02
2018-04-01T17:28:48.328Z,94281.99
2018-04-01T17:31:15.920Z,94283.64
2018-04-01T17:33:43.601Z,94290.27
2018-04-01T17:36:11.175Z,94290.80
2018-04-01T17:38:38.761Z,94296.59
2018-04-01T17:41:06.296Z,94299.58
2018-04-01T17:43:33.886Z,94304.45
2018-04-01T17:46:01.497Z,94313.02
2018-04-01T17:48:29.135Z,94321.42
2018-04-01T17:50:56.859Z,94314.51
2018-04-01T17:53:24.403Z,94321.64
2018-04-01T17:55:52.103Z,94321.15
2018-04-01T17:58:19.695Z,94319.34
2018-04-01T18:00:47.300Z,94323.30
2018-04-01T18:03:14.885Z,94329.42
2018-04-01T18:05:42.459Z,94333.44
2018-04-01T18:08:10.066Z,94338.77
2018-04-01T18:10:37.639Z,94335.63
2018-04-01T18:13:05.240Z,94333.59
2018-04-01T18:15:32.861Z,94333.03
2018-04-01T18:18:00.493Z,94341.61
2018-04-01T18:20:28.116Z,94339.13
2018-04-01T18:22:55.667Z,94346.01
2018-04-01T18:25:23.248Z,94345.39
2018-04-01T18:27:50.785Z,94347.94
2018-04-01T18:30:18.320Z,94350.66
2018-04-01T18:32:45.914Z,94358.02
2018-04-01T18:35:13.476Z,94362.63
2018-04-01T18:37:41.007Z,94366.00
2018-04-01T18:40:08.651Z,94368.27
2018-04-01T18:42:36.972Z,94380.03
2018-04-01T18:45:04.822Z,94384.88
2018-04-01T18:47:32.429Z,94393.08
2018-04-01T18:49:59.975Z,94392.30
2018-04-01T18:52:27.552Z,94398.45
2018-04-01T18:54:55.151Z,94404.30
2018-04-01T18:57:23.270Z,94408.63
2018-04-01T18:59:50.871Z,94413.58
2018-04-01T19:02:18.468Z,94410.48
2018-04-01T19:04:46.172Z,94417.55
2018-04-01T19:07:13.871Z,94422.10
2018-04-01T19:09:41.440Z,94415.17
2018-04-01T19:12:09.027Z,94417.20
2018-04-01T19:14:36.689Z,94417.64
2018-04-01T19:17:08.237Z,94427.37
2018-04-01T19:19:36.675Z,94423.03
2018-04-01T19:22:05.086Z,94430.27
2018-04-01T19:24:33.499Z,94430.30
2018-04-01T19:27:01.914Z,94430.51
2018-04-01T19:29:30.294Z,94433.40
2018-04-01T19:31:58.832Z,94433.92
2018-04-01T19:34:27.208Z,94432.23
2018-04-01T19:36:55.696Z,94434.94
2018-04-01T19:39:24.071Z,94435.47
2018-04-01T19:41:52.513Z,94440.18
2018-04-01T19:44:20.921Z,94435.24
2018-04-01T19:46:49.330Z,94433.43
2018-04-01T19:49:17.768Z,94425.61
2018-04-01T19:51:46.200Z,94434.02
2018-04-01T19:54:14.581Z,94436.87
2018-04-01T19:56:43.075Z,94438.58
2018-04-01T19:59:11.487Z,94440.61
2018-04-01T20:01:39.918Z,94437.78
2018-04-01T20:04:08.297Z,94442.46
2018-04-01T20:06:36.925Z,94438.21
2018-04-01T20:09:06.215Z,94449.09
2018-04-01T20:11:34.680Z,94455.22
2018-04-01T20:14:03.173Z,94453.42
2018-04-01T20:16:31.583Z,94461.67
2018-04-01T20:19:00.009Z,94463.25
2018-04-01T20:21:28.434Z,94464.91
2018-04-01T20:23:56.896Z,94465.79
2018-04-01T20:26:25.367Z,94465.91
2018-04-01T20:28:53.806Z,94464.17
2018-04-01T20:31:22.203Z,94462.50
2018-04-01T20:33:50.628Z,94469.92
2018-04-01T20:36:19.029Z,94476.91
2018-04-01T20:38:47.492Z,94473.21
2018-04-01T20:41:15.902Z,94471.16
2018-04-01T20:43:44.368Z,94472.78
2018-04-01T20:46:12.780Z,94473.72
2018-04-01T20:48:41.211Z,94474.13
2018-04-01T20:51:09.670Z,94478.24
2018-04-01T20:53:38.111Z,94481.42
2018-04-01T20:56:06.594Z,94473.27
2018-04-01T20:58:35.066Z,94478.89
2018-04-01T21:01:03.486Z,94477.55
2018-04-01T21:03:31.962Z,94485.58
2018-04-01T21:06:00.370Z,94481.33
2018-04-01T21:08:28.795Z,94481.14
2018-04-01T21:10:57.195Z,94487.20
2018-04-01T21:13:25.629Z,94494.12
2018-04-01T21:15:54.210Z,94489.38
2018-04-01T21:18:22.612Z,94493.61
2018-04-01T21:20:51.012Z,94496.28
2018-04-01T21:23:19.446Z,94496.67
2018-04-01T21:25:47.883Z,94498.74
2018-04-01T21:28:16.365Z,94498.11
2018-04-01T21:30:44.791Z,94501.77
2018-04-01T21:33:13.167Z,94500.64
2018-04-01T21:35:41.554Z,94492.27
2018-04-01T21:38:10.008Z,94501.93
2018-04-01T21:40:38.438Z,94496.88
2018-04-01T21:43:06.816Z,94488.94
2018-04-01T21:45:35.256Z,94500.91
2018-04-01T21:48:03.606Z,94499.00
2018-04-01T21:50:31.984Z,94501.93
2018-04-01T21:53:00.408Z,94502.23
2018-04-01T21:55:28.784Z,94499.89
2018-04-01T21:57:57.173Z,94496.64
2018-04-01T22:00:25.552Z,94495.36
2018-04-01T22:02:53.935Z,94492.56
2018-04-01T22:05:22.360Z,94496.99
2018-04-01T22:07:50.781Z,94488.73
2018-04-01T22:10:19.432Z,94491.41
2018-04-01T22:12:47.940Z,94497.90
2018-04-01T22:15:16.352Z,94493.47
2018-04-01T22:17:45.805Z,94484.73
2018-04-01T22:20:14.228Z,94488.02
2018-04-01T22:22:54.367Z,94486.70
2018-04-01T22:25:22.776Z,94482.36
2018-04-01T22:27:51.239Z,94475.80
2018-04-01T22:30:19.628Z,94468.52
2018-04-01T22:32:48.119Z,94472.75
2018-04-01T22:35:16.610Z,94467.34
2018-04-01T22:37:45.028Z,94468.19
2018-04-01T22:40:13.442Z,94467.45
2018-04-01T22:42:41.848Z,94461.09
2018-04-01T22:45:10.279Z,94455.64
2018-04-01T22:47:38.743Z,94456.89
2018-04-01T22:50:07.421Z,94462.14
2018-04-01T22:52:35.902Z,94464.02
2018-04-01T22:55:04.313Z,94466.95
2018-04-01T22:57:32.718Z,94462.41
2018-04-01T23:00:01.267Z,94468.77
2018-04-01T23:02:29.387Z,94474.36
2018-04-01T23:04:57.885Z,94472.45
2018-04-01T23:07:26.297Z,94473.93
2018-04-01T23:09:54.716Z,94474.73
2018-04-01T23:12:23.188Z,94474.34
2018-04-01T23:14:51.592Z,94475.63
2018-04-01T23:17:20.019Z,94473.16
2018-04-01T23:19:48.435Z,94472.92
2018-04-01T23:22:16.844Z,94470.02
2018-04-01T23:24:45.263Z,94465.06
2018-04-01T23:27:13.765Z,94469.48
2018-04-01T23:29:42.344Z,94465.73
2018-04-01T23:32:10.742Z,94470.44
2018-04-01T23:34:39.172Z,94467.91
2018-04-01T23:37:07.881Z,94469.64
2018-04-01T23:39:36.420Z,94466.06
2018-04-01T23:42:04.920Z,94476.75
2018-04-01T23:44:33.318Z,94476.08
2018-04-01T23:47:01.746Z,94473.06
2018-04-01T23:49:30.150Z,94473.28
2018-04-01T23:51:58.601Z,94471.27
2018-04-01T23:54:27.032Z,94467.53
2018-04-01T23:56:55.432Z,94468.35
2018-04-01T23:59:23.875Z,94465.47
